SASA/SLA METAR and TAF weather

Enter ICAO airport designator
Station Type Date Time Source
SASA METAR 2019/08/23 16:00 UTC NOAA

SASA 231600Z 36006KT CAVOK 19/03 Q1024


Station Type Date Time Source
SASA Decoded METAR 2019/08/23 16:00 UTC NOAA

Station name not available
Aug 23, 2019 - 12:00 PM EDT / 2019.08.23 1600 UTC
Wind: from the N (360 degrees) at 7 MPH (6 KT):0
Visibility: greater than 7 mile(s):0
Temperature: 66 F (19 C)
Dew Point: 37 F (3 C)
Relative Humidity: 34%
Pressure (altimeter): 30.24 in. Hg (1024 hPa)
ob: SASA 231600Z 36006KT CAVOK 19/03 Q1024
cycle: 16

Station Type Date Time Source
SASA TAF 2019/08/23 12:06 UTC NOAA

TAF SASA 231100Z 2312/2412 02005KT CAVOK TX22/2318Z TN08/2410Z
BECMG 2315/2318 05010KT
BECMG 2321/2400 VRB03KT

Example: see airport list